DLH25PL LEVC-EDDF
Flight info
| Callsign | DLH25PL |
|---|---|
| Flight time | N/A |
| Altitude | 36000 |
| Route | SOPET N608 MATEX Z475 OSLAP DCT ARBEK T113 RUTIP DCT OKABI DCT TOU DCT ADABI DCT BOKNO DCT DIBES DCT VIQAQ DCT TSU UN858 OQQAL DCT RANUX/N0429F370 DCT VALEK DCT LUTAX UM163 DIK T856 NIVNU T847 IMCOM IMCOM1A |
| Aircraft | A20N/M-SDE2E3FGHIRWXY/LB1 |
Departure
| Time | N/A |
|---|---|
| Airport | Valencia Airport (LEVC) |
Arrival
| Time | 2026-05-05 20:14 |
|---|---|
| Airport | Frankfurt Main Airport (EDDF) |
| Time | Latitude | Longitude | Altitude | Speed | Heading |
|---|---|---|---|---|---|
| 2026-05-05 19:26 | 48.83473 | 2.55372 | 35997 ft | 451 kts | 74° |
| 2026-05-05 19:26 | 48.85119 | 2.64590 | 36000 ft | 451 kts | 75° |
| 2026-05-05 19:27 | 48.86947 | 2.73699 | 36003 ft | 451 kts | 70° |
| 2026-05-05 19:27 | 48.89073 | 2.82606 | 36002 ft | 451 kts | 70° |
| 2026-05-05 19:28 | 48.91160 | 2.91608 | 36000 ft | 451 kts | 70° |
| 2026-05-05 19:28 | 48.93185 | 3.00582 | 36001 ft | 451 kts | 71° |
| 2026-05-05 19:29 | 48.95183 | 3.09511 | 36000 ft | 450 kts | 71° |
| 2026-05-05 19:29 | 48.97197 | 3.18548 | 36003 ft | 451 kts | 71° |
| 2026-05-05 19:30 | 48.99205 | 3.27593 | 35999 ft | 451 kts | 71° |
| 2026-05-05 19:30 | 49.01209 | 3.36655 | 36000 ft | 451 kts | 71° |
| 2026-05-05 19:31 | 49.03202 | 3.45709 | 36000 ft | 451 kts | 71° |
| 2026-05-05 19:31 | 49.05191 | 3.54785 | 35999 ft | 451 kts | 71° |
| 2026-05-05 19:32 | 49.07156 | 3.63788 | 35997 ft | 450 kts | 71° |
| 2026-05-05 19:32 | 49.09131 | 3.72877 | 36004 ft | 451 kts | 71° |
| 2026-05-05 19:33 | 49.11099 | 3.81969 | 35997 ft | 452 kts | 71° |
| 2026-05-05 19:33 | 49.13065 | 3.91096 | 36002 ft | 452 kts | 71° |
| 2026-05-05 19:34 | 49.15020 | 4.00213 | 36001 ft | 452 kts | 72° |
| 2026-05-05 19:35 | 49.17927 | 4.13841 | 35999 ft | 451 kts | 72° |
| 2026-05-05 19:35 | 49.19860 | 4.22956 | 36002 ft | 451 kts | 72° |
| 2026-05-05 19:36 | 49.21788 | 4.32090 | 36003 ft | 451 kts | 72° |
| 2026-05-05 19:36 | 49.23699 | 4.41244 | 35997 ft | 451 kts | 72° |
| 2026-05-05 19:37 | 49.25597 | 4.50397 | 35997 ft | 451 kts | 72° |
| 2026-05-05 19:37 | 49.27490 | 4.59488 | 36003 ft | 451 kts | 72° |
| 2026-05-05 19:38 | 49.29365 | 4.68515 | 36003 ft | 451 kts | 72° |
| 2026-05-05 19:38 | 49.31262 | 4.77697 | 35999 ft | 451 kts | 72° |
| 2026-05-05 19:39 | 49.33149 | 4.86866 | 35994 ft | 451 kts | 72° |
| 2026-05-05 19:39 | 49.34091 | 4.91461 | 35806 ft | 451 kts | 72° |
| 2026-05-05 19:39 | 49.35019 | 4.95997 | 35445 ft | 452 kts | 72° |
| 2026-05-05 19:39 | 49.35958 | 5.00600 | 35067 ft | 452 kts | 72° |
| 2026-05-05 19:40 | 49.36895 | 5.05204 | 34696 ft | 452 kts | 73° |
| 2026-05-05 19:40 | 49.37834 | 5.09827 | 34321 ft | 453 kts | 73° |
| 2026-05-05 19:40 | 49.38772 | 5.14457 | 33947 ft | 454 kts | 73° |
| 2026-05-05 19:40 | 49.39711 | 5.19103 | 33571 ft | 454 kts | 73° |
| 2026-05-05 19:41 | 49.40635 | 5.23687 | 33204 ft | 455 kts | 73° |
| 2026-05-05 19:41 | 49.41571 | 5.28339 | 32827 ft | 456 kts | 73° |
| 2026-05-05 19:41 | 49.42507 | 5.33005 | 32452 ft | 457 kts | 73° |
| 2026-05-05 19:41 | 49.43441 | 5.37669 | 32137 ft | 457 kts | 73° |
| 2026-05-05 19:42 | 49.44329 | 5.42369 | 32017 ft | 458 kts | 76° |
| 2026-05-05 19:42 | 49.45746 | 5.51948 | 32000 ft | 460 kts | 77° |
| 2026-05-05 19:43 | 49.47120 | 5.61564 | 32000 ft | 460 kts | 77° |
| 2026-05-05 19:43 | 49.48741 | 5.71043 | 31858 ft | 456 kts | 66° |
| 2026-05-05 19:43 | 49.50250 | 5.75329 | 31303 ft | 455 kts | 57° |
| 2026-05-05 19:44 | 49.51792 | 5.79581 | 30618 ft | 456 kts | 62° |
| 2026-05-05 19:44 | 49.53223 | 5.83927 | 30110 ft | 456 kts | 63° |
| 2026-05-05 19:44 | 49.54644 | 5.88291 | 29609 ft | 454 kts | 63° |
| 2026-05-05 19:44 | 49.56051 | 5.92628 | 29109 ft | 451 kts | 63° |
| 2026-05-05 19:45 | 49.57441 | 5.96920 | 28610 ft | 446 kts | 63° |
| 2026-05-05 19:45 | 49.58819 | 6.01182 | 28112 ft | 442 kts | 64° |
| 2026-05-05 19:45 | 49.60157 | 6.05356 | 27618 ft | 438 kts | 63° |
| 2026-05-05 19:45 | 49.61527 | 6.09600 | 27105 ft | 435 kts | 63° |
| 2026-05-05 19:46 | 49.62857 | 6.13719 | 26621 ft | 432 kts | 63° |
| 2026-05-05 19:46 | 49.64192 | 6.17858 | 26118 ft | 429 kts | 63° |
| 2026-05-05 19:46 | 49.65515 | 6.21972 | 25612 ft | 426 kts | 63° |
| 2026-05-05 19:46 | 49.66825 | 6.26056 | 25185 ft | 421 kts | 63° |
| 2026-05-05 19:47 | 49.67679 | 6.28723 | 25065 ft | 417 kts | 63° |
| 2026-05-05 19:47 | 49.68972 | 6.32768 | 24995 ft | 421 kts | 63° |
| 2026-05-05 19:47 | 49.70271 | 6.36838 | 24997 ft | 422 kts | 63° |
| 2026-05-05 19:47 | 49.71989 | 6.42231 | 24987 ft | 422 kts | 63° |
| 2026-05-05 19:48 | 49.72865 | 6.44984 | 24864 ft | 422 kts | 63° |
| 2026-05-05 19:48 | 49.74157 | 6.49052 | 24443 ft | 421 kts | 64° |
| 2026-05-05 19:48 | 49.75440 | 6.53096 | 23939 ft | 417 kts | 64° |
| 2026-05-05 19:48 | 49.76692 | 6.57050 | 23456 ft | 411 kts | 64° |
| 2026-05-05 19:49 | 49.77937 | 6.60992 | 22950 ft | 407 kts | 64° |
| 2026-05-05 19:49 | 49.79181 | 6.64931 | 22449 ft | 406 kts | 64° |
| 2026-05-05 19:49 | 49.80413 | 6.68842 | 21949 ft | 402 kts | 64° |
| 2026-05-05 19:49 | 49.81631 | 6.72713 | 21450 ft | 397 kts | 64° |
| 2026-05-05 19:50 | 49.82836 | 6.76546 | 20950 ft | 395 kts | 64° |
| 2026-05-05 19:50 | 49.84036 | 6.80372 | 20450 ft | 394 kts | 64° |
| 2026-05-05 19:50 | 49.85228 | 6.84178 | 19949 ft | 390 kts | 64° |
| 2026-05-05 19:50 | 49.86405 | 6.87942 | 19456 ft | 386 kts | 64° |
| 2026-05-05 19:51 | 49.87557 | 6.91629 | 18953 ft | 385 kts | 64° |
| 2026-05-05 19:51 | 49.88717 | 6.95348 | 18470 ft | 380 kts | 64° |
| 2026-05-05 19:51 | 49.89862 | 6.99028 | 17947 ft | 378 kts | 64° |
| 2026-05-05 19:51 | 49.91006 | 7.02706 | 17370 ft | 377 kts | 64° |
| 2026-05-05 19:52 | 49.92142 | 7.06365 | 16794 ft | 374 kts | 64° |
| 2026-05-05 19:52 | 49.93267 | 7.09994 | 16218 ft | 372 kts | 64° |
| 2026-05-05 19:52 | 49.94383 | 7.13599 | 15643 ft | 369 kts | 64° |
| 2026-05-05 19:52 | 49.95493 | 7.17189 | 15068 ft | 367 kts | 64° |
| 2026-05-05 19:53 | 49.96578 | 7.20706 | 14494 ft | 364 kts | 64° |
| 2026-05-05 19:53 | 49.97669 | 7.24244 | 13927 ft | 362 kts | 64° |
| 2026-05-05 19:53 | 49.98745 | 7.27762 | 13348 ft | 359 kts | 66° |
| 2026-05-05 19:53 | 49.99473 | 7.31462 | 12771 ft | 357 kts | 76° |
| 2026-05-05 19:54 | 50.00058 | 7.35201 | 12202 ft | 355 kts | 76° |
| 2026-05-05 19:54 | 50.00629 | 7.38918 | 11618 ft | 353 kts | 77° |
| 2026-05-05 19:54 | 50.01187 | 7.42619 | 11179 ft | 347 kts | 77° |
| 2026-05-05 19:54 | 50.01722 | 7.46222 | 11031 ft | 339 kts | 77° |
| 2026-05-05 19:55 | 50.02253 | 7.49830 | 11001 ft | 343 kts | 77° |
| 2026-05-05 19:55 | 50.02785 | 7.53455 | 10999 ft | 343 kts | 77° |
| 2026-05-05 19:55 | 50.03305 | 7.57011 | 10828 ft | 339 kts | 77° |
| 2026-05-05 19:55 | 50.03819 | 7.60537 | 10582 ft | 329 kts | 77° |
| 2026-05-05 19:56 | 50.04318 | 7.63963 | 10329 ft | 320 kts | 77° |
| 2026-05-05 19:56 | 50.04800 | 7.67286 | 10078 ft | 311 kts | 77° |
| 2026-05-05 19:56 | 50.05270 | 7.70526 | 9825 ft | 302 kts | 77° |
| 2026-05-05 19:56 | 50.05725 | 7.73672 | 9571 ft | 294 kts | 77° |
| 2026-05-05 19:57 | 50.06168 | 7.76741 | 9323 ft | 287 kts | 77° |
| 2026-05-05 19:57 | 50.06605 | 7.79776 | 9082 ft | 289 kts | 77° |
| 2026-05-05 19:57 | 50.07043 | 7.82816 | 9010 ft | 287 kts | 77° |
| 2026-05-05 19:57 | 50.07478 | 7.85851 | 8999 ft | 287 kts | 77° |
| 2026-05-05 19:58 | 50.07914 | 7.88894 | 9000 ft | 288 kts | 77° |
| 2026-05-05 19:58 | 50.08349 | 7.91935 | 9000 ft | 288 kts | 77° |
| 2026-05-05 19:58 | 50.08783 | 7.94979 | 9000 ft | 288 kts | 77° |
| 2026-05-05 19:58 | 50.09217 | 7.98029 | 9000 ft | 288 kts | 77° |
| 2026-05-05 19:59 | 50.09651 | 8.01080 | 9000 ft | 288 kts | 77° |
| 2026-05-05 19:59 | 50.10084 | 8.04130 | 9000 ft | 288 kts | 77° |
| 2026-05-05 19:59 | 50.10515 | 8.07180 | 9000 ft | 288 kts | 77° |
| 2026-05-05 19:59 | 50.10946 | 8.10227 | 9000 ft | 288 kts | 77° |
| 2026-05-05 20:00 | 50.11370 | 8.13240 | 9000 ft | 289 kts | 77° |
| 2026-05-05 20:00 | 50.11800 | 8.16295 | 9001 ft | 289 kts | 77° |
| 2026-05-05 20:00 | 50.12230 | 8.19355 | 9000 ft | 288 kts | 77° |
| 2026-05-05 20:00 | 50.12658 | 8.22415 | 9000 ft | 288 kts | 77° |
| 2026-05-05 20:01 | 50.13086 | 8.25471 | 9000 ft | 288 kts | 77° |
| 2026-05-05 20:01 | 50.13511 | 8.28520 | 9000 ft | 288 kts | 77° |
| 2026-05-05 20:01 | 50.13931 | 8.31541 | 8998 ft | 279 kts | 77° |
| 2026-05-05 20:01 | 50.14331 | 8.34418 | 8997 ft | 263 kts | 78° |
| 2026-05-05 20:02 | 50.14701 | 8.37086 | 8999 ft | 251 kts | 78° |
| 2026-05-05 20:02 | 50.15073 | 8.39781 | 9000 ft | 256 kts | 78° |
| 2026-05-05 20:02 | 50.15446 | 8.42478 | 9000 ft | 254 kts | 78° |
| 2026-05-05 20:02 | 50.15819 | 8.45176 | 9000 ft | 254 kts | 78° |
| 2026-05-05 20:03 | 50.16191 | 8.47871 | 9001 ft | 254 kts | 78° |
| 2026-05-05 20:03 | 50.16562 | 8.50565 | 9000 ft | 254 kts | 78° |
| 2026-05-05 20:03 | 50.16931 | 8.53258 | 9000 ft | 254 kts | 78° |
| 2026-05-05 20:03 | 50.17300 | 8.55952 | 9000 ft | 254 kts | 78° |
| 2026-05-05 20:04 | 50.17669 | 8.58647 | 9000 ft | 254 kts | 78° |
| 2026-05-05 20:04 | 50.18036 | 8.61343 | 9000 ft | 254 kts | 78° |
| 2026-05-05 20:04 | 50.18404 | 8.64039 | 9000 ft | 254 kts | 78° |
| 2026-05-05 20:04 | 50.18769 | 8.66731 | 9000 ft | 254 kts | 78° |
| 2026-05-05 20:05 | 50.19136 | 8.69434 | 8877 ft | 255 kts | 78° |
| 2026-05-05 20:05 | 50.19500 | 8.72119 | 8525 ft | 257 kts | 78° |
| 2026-05-05 20:05 | 50.19869 | 8.74846 | 8155 ft | 257 kts | 78° |
| 2026-05-05 20:05 | 50.20238 | 8.77584 | 7770 ft | 257 kts | 78° |
| 2026-05-05 20:06 | 50.20607 | 8.80323 | 7402 ft | 257 kts | 78° |
| 2026-05-05 20:06 | 50.20958 | 8.82932 | 7043 ft | 257 kts | 78° |
| 2026-05-05 20:06 | 50.21324 | 8.85665 | 6671 ft | 257 kts | 79° |
| 2026-05-05 20:06 | 50.21298 | 8.88430 | 6274 ft | 257 kts | 106° |
| 2026-05-05 20:07 | 50.20446 | 8.90829 | 5823 ft | 252 kts | 132° |
| 2026-05-05 20:07 | 50.19264 | 8.92822 | 5387 ft | 248 kts | 134° |
| 2026-05-05 20:07 | 50.18003 | 8.94534 | 5195 ft | 233 kts | 155° |
| 2026-05-05 20:07 | 50.16392 | 8.95056 | 5166 ft | 241 kts | 186° |
| 2026-05-05 20:08 | 50.14871 | 8.94229 | 5176 ft | 236 kts | 217° |
| 2026-05-05 20:08 | 50.13761 | 8.92361 | 5165 ft | 236 kts | 233° |
| 2026-05-05 20:08 | 50.12912 | 8.90187 | 5179 ft | 235 kts | 250° |
| 2026-05-05 20:08 | 50.12400 | 8.87761 | 5175 ft | 232 kts | 253° |
| 2026-05-05 20:09 | 50.11957 | 8.85468 | 5167 ft | 210 kts | 253° |
| 2026-05-05 20:09 | 50.11555 | 8.83393 | 5125 ft | 193 kts | 255° |
| 2026-05-05 20:09 | 50.11217 | 8.81341 | 4913 ft | 195 kts | 256° |
| 2026-05-05 20:09 | 50.10865 | 8.79368 | 4860 ft | 189 kts | 253° |
| 2026-05-05 20:10 | 50.10452 | 8.77388 | 4815 ft | 193 kts | 251° |
| 2026-05-05 20:10 | 50.09980 | 8.75433 | 4549 ft | 192 kts | 249° |
| 2026-05-05 20:10 | 50.09490 | 8.73503 | 4204 ft | 190 kts | 249° |
| 2026-05-05 20:10 | 50.09007 | 8.71596 | 3841 ft | 188 kts | 248° |
| 2026-05-05 20:11 | 50.08533 | 8.69732 | 3425 ft | 181 kts | 250° |
| 2026-05-05 20:11 | 50.08098 | 8.67970 | 3027 ft | 167 kts | 249° |
| 2026-05-05 20:11 | 50.07703 | 8.66362 | 2677 ft | 153 kts | 250° |
| 2026-05-05 20:11 | 50.07352 | 8.64828 | 2299 ft | 147 kts | 251° |
| 2026-05-05 20:12 | 50.07011 | 8.63361 | 1954 ft | 142 kts | 249° |
| 2026-05-05 20:12 | 50.06651 | 8.61950 | 1634 ft | 138 kts | 248° |
| 2026-05-05 20:12 | 50.06308 | 8.60575 | 1334 ft | 134 kts | 249° |
| 2026-05-05 20:12 | 50.05993 | 8.59254 | 1065 ft | 130 kts | 251° |
| 2026-05-05 20:13 | 50.05677 | 8.57941 | 845 ft | 131 kts | 250° |
| 2026-05-05 20:13 | 50.05361 | 8.56621 | 693 ft | 130 kts | 251° |
| 2026-05-05 20:13 | 50.05047 | 8.55304 | 573 ft | 130 kts | 250° |
| 2026-05-05 20:13 | 50.04731 | 8.53986 | 450 ft | 130 kts | 250° |
| 2026-05-05 20:14 | 50.04416 | 8.52677 | 369 ft | 125 kts | 250° |
| 2026-05-05 20:14 | 50.04182 | 8.51688 | 366 ft | 68 kts | 249° |
| 2026-05-05 20:14 | 50.04052 | 8.51170 | 355 ft | 27 kts | 241° |
| 2026-05-05 20:14 | 50.03954 | 8.50979 | 351 ft | 14 kts | 226° |
| 2026-05-05 20:15 | 50.03874 | 8.50877 | 353 ft | 13 kts | 218° |
| 2026-05-05 20:15 | 50.03846 | 8.50843 | 348 ft | 4 kts | 215° |
| 2026-05-05 20:15 | 50.03837 | 8.50835 | 348 ft | 0 kts | 207° |
| 2026-05-05 20:15 | 50.03822 | 8.50830 | 342 ft | 5 kts | 191° |
| 2026-05-05 20:16 | 50.03776 | 8.50879 | 344 ft | 9 kts | 101° |
| 2026-05-05 20:16 | 50.03798 | 8.50997 | 351 ft | 13 kts | 70° |
| 2026-05-05 20:16 | 50.03832 | 8.51136 | 350 ft | 14 kts | 69° |
| 2026-05-05 20:16 | 50.03869 | 8.51294 | 353 ft | 17 kts | 70° |
| 2026-05-05 20:17 | 50.03911 | 8.51479 | 355 ft | 19 kts | 71° |
| 2026-05-05 20:17 | 50.03959 | 8.51678 | 353 ft | 21 kts | 70° |
| 2026-05-05 20:17 | 50.04010 | 8.51891 | 358 ft | 21 kts | 69° |
| 2026-05-05 20:17 | 50.04065 | 8.52115 | 353 ft | 23 kts | 69° |
| 2026-05-05 20:18 | 50.04126 | 8.52359 | 360 ft | 25 kts | 69° |
| 2026-05-05 20:18 | 50.04186 | 8.52619 | 364 ft | 26 kts | 70° |
| 2026-05-05 20:18 | 50.04248 | 8.52877 | 365 ft | 25 kts | 69° |
| 2026-05-05 20:18 | 50.04309 | 8.53125 | 370 ft | 25 kts | 69° |
| 2026-05-05 20:19 | 50.04361 | 8.53343 | 374 ft | 18 kts | 68° |
| 2026-05-05 20:19 | 50.04398 | 8.53505 | 375 ft | 8 kts | 79° |
| 2026-05-05 20:19 | 50.04407 | 8.53599 | 377 ft | 10 kts | 83° |
| 2026-05-05 20:19 | 50.04412 | 8.53735 | 373 ft | 17 kts | 85° |
| 2026-05-05 20:20 | 50.04423 | 8.53913 | 377 ft | 16 kts | 84° |
| 2026-05-05 20:20 | 50.04435 | 8.54103 | 377 ft | 19 kts | 85° |
| 2026-05-05 20:20 | 50.04449 | 8.54327 | 361 ft | 15 kts | 85° |
| 2026-05-05 20:20 | 50.04439 | 8.54560 | 352 ft | 24 kts | 115° |
| 2026-05-05 20:21 | 50.04342 | 8.54743 | 352 ft | 15 kts | 145° |
| 2026-05-05 20:21 | 50.04251 | 8.54809 | 360 ft | 16 kts | 163° |
| 2026-05-05 20:21 | 50.04146 | 8.54868 | 362 ft | 9 kts | 159° |
| 2026-05-05 20:21 | 50.04090 | 8.54900 | 361 ft | 0 kts | 160° |
| 2026-05-05 20:22 | 50.04084 | 8.54903 | 359 ft | 1 kts | 160° |
| 2026-05-05 20:22 | 50.04073 | 8.54910 | 361 ft | 2 kts | 160° |
| 2026-05-05 20:23 | 50.04038 | 8.54930 | 362 ft | 12 kts | 160° |
| 2026-05-05 20:23 | 50.03964 | 8.54973 | 360 ft | 13 kts | 159° |
| 2026-05-05 20:23 | 50.03887 | 8.55019 | 361 ft | 4 kts | 159° |
| 2026-05-05 20:23 | 50.03859 | 8.55036 | 361 ft | 1 kts | 159° |
| 2026-05-05 20:24 | 50.03840 | 8.55056 | 360 ft | 5 kts | 132° |
| 2026-05-05 20:24 | 50.03845 | 8.55112 | 359 ft | 7 kts | 54° |
| 2026-05-05 20:24 | 50.03883 | 8.55165 | 361 ft | 5 kts | 77° |
| 2026-05-05 20:24 | 50.03882 | 8.55246 | 358 ft | 10 kts | 81° |
| 2026-05-05 20:25 | 50.03910 | 8.55367 | 358 ft | 13 kts | 69° |
| 2026-05-05 20:25 | 50.03947 | 8.55519 | 360 ft | 17 kts | 69° |
| 2026-05-05 20:25 | 50.03996 | 8.55725 | 361 ft | 23 kts | 70° |
| 2026-05-05 20:25 | 50.04055 | 8.55973 | 355 ft | 27 kts | 69° |
| 2026-05-05 20:26 | 50.04123 | 8.56257 | 352 ft | 29 kts | 70° |
| 2026-05-05 20:26 | 50.04196 | 8.56567 | 350 ft | 31 kts | 70° |
| 2026-05-05 20:26 | 50.04272 | 8.56880 | 353 ft | 31 kts | 69° |
| 2026-05-05 20:26 | 50.04349 | 8.57206 | 350 ft | 34 kts | 70° |
| 2026-05-05 20:27 | 50.04434 | 8.57565 | 337 ft | 36 kts | 70° |
| 2026-05-05 20:27 | 50.04525 | 8.57938 | 339 ft | 37 kts | 69° |
| 2026-05-05 20:27 | 50.04581 | 8.58185 | 334 ft | 21 kts | 71° |
| 2026-05-05 20:27 | 50.04634 | 8.58404 | 334 ft | 24 kts | 68° |
| 2026-05-05 20:28 | 50.04694 | 8.58650 | 325 ft | 15 kts | 70° |
| 2026-05-05 20:28 | 50.04739 | 8.58814 | 327 ft | 18 kts | 65° |
| 2026-05-05 20:28 | 50.04764 | 8.58921 | 328 ft | 7 kts | 70° |
| 2026-05-05 20:28 | 50.04794 | 8.58939 | 334 ft | 4 kts | 344° |
| 2026-05-05 20:29 | 50.04818 | 8.58921 | 331 ft | 3 kts | 335° |
| 2026-05-05 20:29 | 50.04836 | 8.58910 | 336 ft | 2 kts | 340° |
| 2026-05-05 20:29 | 50.04842 | 8.58907 | 337 ft | 2 kts | 340° |
| 2026-05-05 20:29 | 50.04850 | 8.58902 | 337 ft | 0 kts | 340° |